sensor_id;sensor_type;location;lat;lon;timestamp;noise_LAeq;noise_LA_min;noise_LA_max;noise_LA01;noise_LA95
64996;Laerm;51545;51.568;6.998;2023-03-03T00:02:15;36.41;31.79;45.12;;
64996;Laerm;51545;51.568;6.998;2023-03-03T00:04:40;36.69;31.88;41.40;;
64996;Laerm;51545;51.568;6.998;2023-03-03T00:07:06;34.62;30.47;40.81;;
64996;Laerm;51545;51.568;6.998;2023-03-03T00:09:31;34.93;30.82;40.04;;
64996;Laerm;51545;51.568;6.998;2023-03-03T00:11:58;33.28;28.34;39.14;;
64996;Laerm;51545;51.568;6.998;2023-03-03T00:14:31;34.03;30.00;42.80;;
64996;Laerm;51545;51.568;6.998;2023-03-03T00:17:00;33.81;29.33;39.20;;
64996;Laerm;51545;51.568;6.998;2023-03-03T00:19:37;34.54;29.94;39.03;;
64996;Laerm;51545;51.568;6.998;2023-03-03T00:22:14;35.69;29.94;40.67;;
64996;Laerm;51545;51.568;6.998;2023-03-03T00:24:41;37.80;29.12;53.45;;
64996;Laerm;51545;51.568;6.998;2023-03-03T00:27:34;40.27;31.12;70.10;;
64996;Laerm;51545;51.568;6.998;2023-03-03T00:30:00;41.26;29.03;71.37;;
64996;Laerm;51545;51.568;6.998;2023-03-03T00:32:27;59.66;29.79;89.82;;
64996;Laerm;51545;51.568;6.998;2023-03-03T00:35:01;34.56;29.18;41.31;;
64996;Laerm;51545;51.568;6.998;2023-03-03T00:37:42;33.74;29.51;40.07;;
64996;Laerm;51545;51.568;6.998;2023-03-03T00:42:57;34.20;28.90;42.57;;
64996;Laerm;51545;51.568;6.998;2023-03-03T00:45:47;33.75;27.77;47.94;;
64996;Laerm;51545;51.568;6.998;2023-03-03T00:50:48;33.18;29.11;40.84;;
64996;Laerm;51545;51.568;6.998;2023-03-03T00:53:16;33.84;28.40;40.34;;
64996;Laerm;51545;51.568;6.998;2023-03-03T00:55:43;33.28;28.14;39.39;;
64996;Laerm;51545;51.568;6.998;2023-03-03T00:58:08;34.04;28.96;39.75;;
64996;Laerm;51545;51.568;6.998;2023-03-03T01:00:35;34.96;30.71;42.59;;
64996;Laerm;51545;51.568;6.998;2023-03-03T01:03:09;32.95;28.66;37.66;;
64996;Laerm;51545;51.568;6.998;2023-03-03T01:05:37;33.25;28.91;39.14;;
64996;Laerm;51545;51.568;6.998;2023-03-03T01:08:03;36.48;30.41;49.79;;
64996;Laerm;51545;51.568;6.998;2023-03-03T01:10:30;36.60;30.79;48.81;;
64996;Laerm;51545;51.568;6.998;2023-03-03T01:12:56;34.41;28.88;44.72;;
64996;Laerm;51545;51.568;6.998;2023-03-03T01:15:23;33.50;29.43;37.95;;
64996;Laerm;51545;51.568;6.998;2023-03-03T01:17:49;36.75;29.94;41.82;;
64996;Laerm;51545;51.568;6.998;2023-03-03T01:20:15;32.84;28.45;45.64;;
64996;Laerm;51545;51.568;6.998;2023-03-03T01:22:41;33.79;27.50;39.91;;
64996;Laerm;51545;51.568;6.998;2023-03-03T01:25:08;34.28;30.32;41.08;;
64996;Laerm;51545;51.568;6.998;2023-03-03T01:27:34;38.14;30.17;47.36;;
64996;Laerm;51545;51.568;6.998;2023-03-03T01:30:00;35.03;28.59;47.55;;
64996;Laerm;51545;51.568;6.998;2023-03-03T01:32:26;32.38;27.87;40.70;;
64996;Laerm;51545;51.568;6.998;2023-03-03T01:34:52;34.11;28.58;45.48;;
64996;Laerm;51545;51.568;6.998;2023-03-03T01:37:19;35.35;28.55;43.66;;
64996;Laerm;51545;51.568;6.998;2023-03-03T01:39:52;35.58;30.22;42.64;;
64996;Laerm;51545;51.568;6.998;2023-03-03T01:42:18;33.21;29.28;38.94;;
64996;Laerm;51545;51.568;6.998;2023-03-03T01:44:44;32.12;27.47;38.58;;
64996;Laerm;51545;51.568;6.998;2023-03-03T01:47:19;34.34;29.24;41.48;;
64996;Laerm;51545;51.568;6.998;2023-03-03T01:49:48;34.70;28.89;39.46;;
64996;Laerm;51545;51.568;6.998;2023-03-03T01:52:44;35.13;29.90;41.36;;
64996;Laerm;51545;51.568;6.998;2023-03-03T01:55:14;36.05;31.10;42.00;;
64996;Laerm;51545;51.568;6.998;2023-03-03T01:57:50;36.14;29.77;46.82;;
64996;Laerm;51545;51.568;6.998;2023-03-03T02:00:17;34.31;30.10;48.06;;
64996;Laerm;51545;51.568;6.998;2023-03-03T02:02:44;32.62;27.54;41.21;;
64996;Laerm;51545;51.568;6.998;2023-03-03T02:05:11;31.82;28.23;36.78;;
64996;Laerm;51545;51.568;6.998;2023-03-03T02:07:38;41.29;30.18;56.69;;
64996;Laerm;51545;51.568;6.998;2023-03-03T02:10:11;34.66;30.27;41.20;;
64996;Laerm;51545;51.568;6.998;2023-03-03T02:12:40;34.07;28.54;41.21;;
64996;Laerm;51545;51.568;6.998;2023-03-03T02:15:28;35.31;31.56;42.35;;
64996;Laerm;51545;51.568;6.998;2023-03-03T02:17:57;34.92;31.06;43.01;;
64996;Laerm;51545;51.568;6.998;2023-03-03T02:20:34;36.21;31.86;42.60;;
64996;Laerm;51545;51.568;6.998;2023-03-03T02:23:17;35.44;31.15;42.63;;
64996;Laerm;51545;51.568;6.998;2023-03-03T02:28:22;38.30;33.36;43.37;;
64996;Laerm;51545;51.568;6.998;2023-03-03T02:30:48;35.13;29.18;41.48;;
64996;Laerm;51545;51.568;6.998;2023-03-03T02:33:14;36.64;31.69;44.40;;
64996;Laerm;51545;51.568;6.998;2023-03-03T02:35:40;35.99;30.49;42.47;;
64996;Laerm;51545;51.568;6.998;2023-03-03T02:38:38;35.04;30.74;39.55;;
64996;Laerm;51545;51.568;6.998;2023-03-03T02:41:17;33.90;29.17;41.57;;
64996;Laerm;51545;51.568;6.998;2023-03-03T02:46:17;37.41;31.61;44.04;;
64996;Laerm;51545;51.568;6.998;2023-03-03T02:48:43;35.68;29.46;46.04;;
64996;Laerm;51545;51.568;6.998;2023-03-03T02:51:09;34.28;30.32;39.89;;
64996;Laerm;51545;51.568;6.998;2023-03-03T02:53:34;32.45;27.56;38.57;;
64996;Laerm;51545;51.568;6.998;2023-03-03T02:55:59;34.19;29.14;40.27;;
64996;Laerm;51545;51.568;6.998;2023-03-03T02:58:25;35.11;30.77;39.98;;
64996;Laerm;51545;51.568;6.998;2023-03-03T03:00:50;35.19;31.25;41.08;;
64996;Laerm;51545;51.568;6.998;2023-03-03T03:03:16;33.69;29.11;37.96;;
64996;Laerm;51545;51.568;6.998;2023-03-03T03:05:41;37.82;29.43;47.01;;
64996;Laerm;51545;51.568;6.998;2023-03-03T03:08:07;35.29;29.94;41.10;;
64996;Laerm;51545;51.568;6.998;2023-03-03T03:10:32;38.62;31.98;43.95;;
64996;Laerm;51545;51.568;6.998;2023-03-03T03:12:58;36.20;29.98;47.25;;
64996;Laerm;51545;51.568;6.998;2023-03-03T03:15:23;37.88;31.58;44.56;;
64996;Laerm;51545;51.568;6.998;2023-03-03T03:17:49;39.89;34.58;48.82;;
64996;Laerm;51545;51.568;6.998;2023-03-03T03:20:15;36.11;31.14;44.99;;
64996;Laerm;51545;51.568;6.998;2023-03-03T03:22:41;38.46;32.28;47.20;;
64996;Laerm;51545;51.568;6.998;2023-03-03T03:25:07;38.35;32.41;45.05;;
64996;Laerm;51545;51.568;6.998;2023-03-03T03:27:32;37.96;31.43;45.35;;
64996;Laerm;51545;51.568;6.998;2023-03-03T03:29:58;38.25;33.72;51.75;;
64996;Laerm;51545;51.568;6.998;2023-03-03T03:32:23;44.21;33.53;68.40;;
64996;Laerm;51545;51.568;6.998;2023-03-03T03:34:49;42.73;34.84;58.52;;
64996;Laerm;51545;51.568;6.998;2023-03-03T03:37:14;43.99;34.29;61.01;;
64996;Laerm;51545;51.568;6.998;2023-03-03T03:39:40;44.04;33.57;61.95;;
64996;Laerm;51545;51.568;6.998;2023-03-03T03:42:05;43.81;35.76;60.11;;
64996;Laerm;51545;51.568;6.998;2023-03-03T03:44:31;44.33;33.28;70.96;;
64996;Laerm;51545;51.568;6.998;2023-03-03T03:46:56;43.43;35.36;58.35;;
64996;Laerm;51545;51.568;6.998;2023-03-03T03:49:22;43.48;34.82;58.20;;
64996;Laerm;51545;51.568;6.998;2023-03-03T03:51:47;43.36;35.46;57.61;;
64996;Laerm;51545;51.568;6.998;2023-03-03T03:54:13;42.94;35.36;60.65;;
64996;Laerm;51545;51.568;6.998;2023-03-03T03:56:38;44.41;37.06;63.63;;
64996;Laerm;51545;51.568;6.998;2023-03-03T03:59:07;42.76;34.44;56.81;;
64996;Laerm;51545;51.568;6.998;2023-03-03T04:01:33;43.31;33.34;61.73;;
64996;Laerm;51545;51.568;6.998;2023-03-03T04:03:58;44.90;34.73;59.68;;
64996;Laerm;51545;51.568;6.998;2023-03-03T04:06:24;43.77;33.87;69.22;;
64996;Laerm;51545;51.568;6.998;2023-03-03T04:08:49;41.05;35.99;53.64;;
64996;Laerm;51545;51.568;6.998;2023-03-03T04:11:15;41.16;35.01;54.33;;
64996;Laerm;51545;51.568;6.998;2023-03-03T04:13:41;40.85;34.41;53.41;;
64996;Laerm;51545;51.568;6.998;2023-03-03T04:16:06;41.14;35.80;52.17;;
64996;Laerm;51545;51.568;6.998;2023-03-03T04:18:33;41.49;35.60;52.76;;
64996;Laerm;51545;51.568;6.998;2023-03-03T04:20:58;42.57;36.91;58.51;;
64996;Laerm;51545;51.568;6.998;2023-03-03T04:23:24;43.85;36.67;62.51;;
64996;Laerm;51545;51.568;6.998;2023-03-03T04:25:49;42.72;36.46;57.01;;
64996;Laerm;51545;51.568;6.998;2023-03-03T04:28:15;43.07;35.91;56.51;;
64996;Laerm;51545;51.568;6.998;2023-03-03T04:30:41;42.54;36.69;57.84;;
64996;Laerm;51545;51.568;6.998;2023-03-03T04:33:07;42.56;36.10;58.52;;
64996;Laerm;51545;51.568;6.998;2023-03-03T04:35:33;43.41;36.24;58.91;;
64996;Laerm;51545;51.568;6.998;2023-03-03T04:37:58;43.10;36.95;58.74;;
64996;Laerm;51545;51.568;6.998;2023-03-03T04:40:24;43.32;37.29;57.80;;
64996;Laerm;51545;51.568;6.998;2023-03-03T04:42:49;43.10;37.37;56.63;;
64996;Laerm;51545;51.568;6.998;2023-03-03T04:45:15;43.65;37.05;57.16;;
64996;Laerm;51545;51.568;6.998;2023-03-03T04:47:40;42.27;35.55;54.04;;
64996;Laerm;51545;51.568;6.998;2023-03-03T04:50:06;42.66;36.73;56.09;;
64996;Laerm;51545;51.568;6.998;2023-03-03T04:52:33;44.52;36.70;60.98;;
64996;Laerm;51545;51.568;6.998;2023-03-03T04:54:59;43.78;37.15;58.63;;
64996;Laerm;51545;51.568;6.998;2023-03-03T04:57:24;42.82;36.52;58.87;;
64996;Laerm;51545;51.568;6.998;2023-03-03T04:59:49;42.54;35.86;54.83;;
64996;Laerm;51545;51.568;6.998;2023-03-03T05:02:16;41.28;36.13;55.60;;
64996;Laerm;51545;51.568;6.998;2023-03-03T05:04:41;42.80;35.14;55.35;;
64996;Laerm;51545;51.568;6.998;2023-03-03T05:07:07;45.26;36.59;59.27;;
64996;Laerm;51545;51.568;6.998;2023-03-03T05:09:32;44.34;36.06;59.11;;
64996;Laerm;51545;51.568;6.998;2023-03-03T05:11:58;42.24;35.76;54.78;;
64996;Laerm;51545;51.568;6.998;2023-03-03T05:14:23;45.89;38.16;58.45;;
64996;Laerm;51545;51.568;6.998;2023-03-03T05:16:49;45.15;37.07;62.23;;
64996;Laerm;51545;51.568;6.998;2023-03-03T05:19:14;41.68;36.96;51.84;;
64996;Laerm;51545;51.568;6.998;2023-03-03T05:21:40;42.37;36.21;53.21;;
64996;Laerm;51545;51.568;6.998;2023-03-03T05:24:08;42.81;37.10;54.60;;
64996;Laerm;51545;51.568;6.998;2023-03-03T05:26:34;43.65;37.57;57.30;;
64996;Laerm;51545;51.568;6.998;2023-03-03T05:28:59;42.54;36.82;55.56;;
64996;Laerm;51545;51.568;6.998;2023-03-03T05:31:25;46.45;38.60;65.21;;
64996;Laerm;51545;51.568;6.998;2023-03-03T05:33:52;46.33;39.60;66.61;;
64996;Laerm;51545;51.568;6.998;2023-03-03T05:36:18;44.74;39.50;61.56;;
64996;Laerm;51545;51.568;6.998;2023-03-03T05:38:43;44.09;40.34;55.10;;
64996;Laerm;51545;51.568;6.998;2023-03-03T05:41:08;44.98;38.83;59.41;;
64996;Laerm;51545;51.568;6.998;2023-03-03T05:43:34;44.23;38.75;56.98;;
64996;Laerm;51545;51.568;6.998;2023-03-03T05:45:59;44.40;39.78;61.81;;
64996;Laerm;51545;51.568;6.998;2023-03-03T05:48:26;45.58;38.19;60.73;;
64996;Laerm;51545;51.568;6.998;2023-03-03T05:50:51;45.79;40.75;58.92;;
64996;Laerm;51545;51.568;6.998;2023-03-03T05:53:17;45.51;40.31;61.50;;
64996;Laerm;51545;51.568;6.998;2023-03-03T05:55:43;52.90;35.55;78.76;;
64996;Laerm;51545;51.568;6.998;2023-03-03T05:58:08;45.92;37.51;68.30;;
64996;Laerm;51545;51.568;6.998;2023-03-03T06:00:34;45.02;37.26;62.37;;
64996;Laerm;51545;51.568;6.998;2023-03-03T06:03:00;49.17;37.61;67.67;;
64996;Laerm;51545;51.568;6.998;2023-03-03T06:05:26;52.04;37.70;67.90;;
64996;Laerm;51545;51.568;6.998;2023-03-03T06:07:52;49.38;39.32;63.00;;
64996;Laerm;51545;51.568;6.998;2023-03-03T06:10:17;49.60;38.97;62.48;;
64996;Laerm;51545;51.568;6.998;2023-03-03T06:12:43;49.65;39.42;66.47;;
64996;Laerm;51545;51.568;6.998;2023-03-03T06:15:09;49.68;39.71;74.81;;
64996;Laerm;51545;51.568;6.998;2023-03-03T06:17:34;48.29;39.92;70.39;;
64996;Laerm;51545;51.568;6.998;2023-03-03T06:20:00;48.05;40.87;67.63;;
64996;Laerm;51545;51.568;6.998;2023-03-03T06:22:26;44.82;40.18;57.35;;
64996;Laerm;51545;51.568;6.998;2023-03-03T06:24:52;49.34;39.93;65.30;;
64996;Laerm;51545;51.568;6.998;2023-03-03T06:27:18;44.31;40.14;56.85;;
64996;Laerm;51545;51.568;6.998;2023-03-03T06:29:44;44.07;39.71;53.47;;
64996;Laerm;51545;51.568;6.998;2023-03-03T06:32:10;44.98;39.97;60.22;;
64996;Laerm;51545;51.568;6.998;2023-03-03T06:34:36;49.31;40.09;71.76;;
64996;Laerm;51545;51.568;6.998;2023-03-03T06:37:02;48.71;41.43;65.38;;
64996;Laerm;51545;51.568;6.998;2023-03-03T06:39:27;46.76;39.95;66.55;;
64996;Laerm;51545;51.568;6.998;2023-03-03T06:41:53;48.17;40.14;70.97;;
64996;Laerm;51545;51.568;6.998;2023-03-03T06:44:18;48.21;38.33;65.93;;
64996;Laerm;51545;51.568;6.998;2023-03-03T06:46:43;46.07;38.73;67.49;;
64996;Laerm;51545;51.568;6.998;2023-03-03T06:49:09;52.17;39.47;67.47;;
64996;Laerm;51545;51.568;6.998;2023-03-03T06:51:36;46.86;38.82;62.09;;
64996;Laerm;51545;51.568;6.998;2023-03-03T06:54:12;49.16;39.13;61.77;;
64996;Laerm;51545;51.568;6.998;2023-03-03T06:56:38;44.59;38.96;62.68;;
64996;Laerm;51545;51.568;6.998;2023-03-03T06:59:11;47.51;39.66;67.23;;
64996;Laerm;51545;51.568;6.998;2023-03-03T07:01:37;44.79;37.37;71.99;;
64996;Laerm;51545;51.568;6.998;2023-03-03T07:06:46;43.75;39.12;54.91;;
64996;Laerm;51545;51.568;6.998;2023-03-03T07:09:20;42.91;38.78;51.33;;
64996;Laerm;51545;51.568;6.998;2023-03-03T07:11:46;43.63;38.75;54.18;;
64996;Laerm;51545;51.568;6.998;2023-03-03T07:14:15;42.96;37.93;53.58;;
64996;Laerm;51545;51.568;6.998;2023-03-03T07:16:42;42.72;40.20;49.05;;
64996;Laerm;51545;51.568;6.998;2023-03-03T07:19:32;43.07;38.93;55.73;;
64996;Laerm;51545;51.568;6.998;2023-03-03T07:22:13;43.93;39.21;64.57;;
64996;Laerm;51545;51.568;6.998;2023-03-03T07:24:40;44.24;39.13;59.20;;
64996;Laerm;51545;51.568;6.998;2023-03-03T07:27:23;43.81;39.49;60.00;;
64996;Laerm;51545;51.568;6.998;2023-03-03T07:29:51;52.48;38.45;68.45;;
64996;Laerm;51545;51.568;6.998;2023-03-03T07:32:26;44.66;39.25;60.13;;
64996;Laerm;51545;51.568;6.998;2023-03-03T07:34:55;44.09;38.92;59.58;;
64996;Laerm;51545;51.568;6.998;2023-03-03T07:37:37;44.50;38.90;59.30;;
64996;Laerm;51545;51.568;6.998;2023-03-03T07:42:57;43.55;38.57;54.69;;
64996;Laerm;51545;51.568;6.998;2023-03-03T07:48:16;43.33;38.12;51.23;;
64996;Laerm;51545;51.568;6.998;2023-03-03T07:50:43;43.28;38.44;54.58;;
64996;Laerm;51545;51.568;6.998;2023-03-03T07:53:21;43.30;39.08;56.88;;
64996;Laerm;51545;51.568;6.998;2023-03-03T07:55:50;42.56;38.18;53.95;;
64996;Laerm;51545;51.568;6.998;2023-03-03T07:58:36;54.65;39.40;76.65;;
64996;Laerm;51545;51.568;6.998;2023-03-03T08:04:27;44.25;39.07;63.49;;
64996;Laerm;51545;51.568;6.998;2023-03-03T08:06:59;45.88;40.27;61.13;;
64996;Laerm;51545;51.568;6.998;2023-03-03T08:09:43;46.16;38.57;62.57;;
64996;Laerm;51545;51.568;6.998;2023-03-03T08:14:37;42.90;37.58;56.53;;
64996;Laerm;51545;51.568;6.998;2023-03-03T08:17:23;46.23;38.76;58.95;;
64996;Laerm;51545;51.568;6.998;2023-03-03T08:19:52;47.50;38.99;65.67;;
64996;Laerm;51545;51.568;6.998;2023-03-03T08:22:34;52.92;39.59;74.68;;
64996;Laerm;51545;51.568;6.998;2023-03-03T08:25:00;45.42;38.76;60.35;;
64996;Laerm;51545;51.568;6.998;2023-03-03T08:27:26;45.44;38.55;59.83;;
64996;Laerm;51545;51.568;6.998;2023-03-03T08:29:52;45.45;36.84;62.85;;
64996;Laerm;51545;51.568;6.998;2023-03-03T08:32:18;45.68;39.25;57.02;;
64996;Laerm;51545;51.568;6.998;2023-03-03T08:34:44;50.46;38.32;75.05;;
64996;Laerm;51545;51.568;6.998;2023-03-03T08:37:09;52.98;38.96;75.07;;
64996;Laerm;51545;51.568;6.998;2023-03-03T08:39:35;43.41;39.02;60.86;;
64996;Laerm;51545;51.568;6.998;2023-03-03T08:42:00;45.43;38.04;61.22;;
64996;Laerm;51545;51.568;6.998;2023-03-03T08:44:26;43.19;38.99;49.55;;
64996;Laerm;51545;51.568;6.998;2023-03-03T08:46:51;43.47;39.08;54.60;;
64996;Laerm;51545;51.568;6.998;2023-03-03T08:49:17;41.88;37.57;56.20;;
64996;Laerm;51545;51.568;6.998;2023-03-03T08:51:42;44.28;36.86;66.22;;
64996;Laerm;51545;51.568;6.998;2023-03-03T08:54:08;42.90;38.33;53.01;;
64996;Laerm;51545;51.568;6.998;2023-03-03T08:56:33;44.03;39.26;59.70;;
64996;Laerm;51545;51.568;6.998;2023-03-03T08:58:59;42.19;38.15;53.53;;
64996;Laerm;51545;51.568;6.998;2023-03-03T09:01:24;42.83;39.42;56.48;;
64996;Laerm;51545;51.568;6.998;2023-03-03T09:03:50;42.15;37.52;54.00;;
64996;Laerm;51545;51.568;6.998;2023-03-03T09:06:15;42.38;37.11;51.49;;
64996;Laerm;51545;51.568;6.998;2023-03-03T09:08:41;42.56;37.01;55.83;;
64996;Laerm;51545;51.568;6.998;2023-03-03T09:11:13;42.25;37.16;56.26;;
64996;Laerm;51545;51.568;6.998;2023-03-03T09:13:39;45.73;37.88;55.37;;
64996;Laerm;51545;51.568;6.998;2023-03-03T09:16:14;45.56;38.35;63.99;;
64996;Laerm;51545;51.568;6.998;2023-03-03T09:18:41;45.45;36.62;61.08;;
64996;Laerm;51545;51.568;6.998;2023-03-03T09:21:20;42.92;36.12;58.06;;
64996;Laerm;51545;51.568;6.998;2023-03-03T09:23:57;40.91;37.31;54.50;;
64996;Laerm;51545;51.568;6.998;2023-03-03T09:26:30;42.35;38.12;56.57;;
64996;Laerm;51545;51.568;6.998;2023-03-03T09:31:41;56.40;37.85;76.67;;
64996;Laerm;51545;51.568;6.998;2023-03-03T09:36:46;46.48;37.26;60.94;;
64996;Laerm;51545;51.568;6.998;2023-03-03T09:39:26;49.30;36.61;63.25;;
64996;Laerm;51545;51.568;6.998;2023-03-03T09:42:03;46.48;38.53;59.88;;
64996;Laerm;51545;51.568;6.998;2023-03-03T10:04:10;43.97;37.91;59.69;;
64996;Laerm;51545;51.568;6.998;2023-03-03T10:06:53;54.49;37.23;74.56;;
64996;Laerm;51545;51.568;6.998;2023-03-03T10:12:26;44.01;37.83;64.20;;
64996;Laerm;51545;51.568;6.998;2023-03-03T10:17:56;52.78;37.22;71.52;;
64996;Laerm;51545;51.568;6.998;2023-03-03T10:26:36;44.30;37.55;63.84;;
64996;Laerm;51545;51.568;6.998;2023-03-03T10:32:34;44.30;37.80;59.60;;
64996;Laerm;51545;51.568;6.998;2023-03-03T10:37:51;42.72;37.14;59.40;;
64996;Laerm;51545;51.568;6.998;2023-03-03T10:40:26;53.56;37.61;68.38;;
64996;Laerm;51545;51.568;6.998;2023-03-03T10:42:59;43.69;36.58;63.17;;
64996;Laerm;51545;51.568;6.998;2023-03-03T10:45:57;43.32;36.53;58.80;;
64996;Laerm;51545;51.568;6.998;2023-03-03T10:54:25;43.84;37.43;60.02;;
64996;Laerm;51545;51.568;6.998;2023-03-03T10:57:10;44.12;38.13;59.62;;
64996;Laerm;51545;51.568;6.998;2023-03-03T11:02:21;50.40;34.65;72.69;;
64996;Laerm;51545;51.568;6.998;2023-03-03T11:07:48;54.16;35.39;74.78;;
64996;Laerm;51545;51.568;6.998;2023-03-03T11:15:58;42.24;36.69;64.80;;
64996;Laerm;51545;51.568;6.998;2023-03-03T11:18:51;41.85;37.95;55.10;;
64996;Laerm;51545;51.568;6.998;2023-03-03T11:21:22;43.70;37.47;53.08;;
64996;Laerm;51545;51.568;6.998;2023-03-03T11:24:10;43.10;37.18;58.38;;
64996;Laerm;51545;51.568;6.998;2023-03-03T11:26:43;51.33;35.96;73.33;;
64996;Laerm;51545;51.568;6.998;2023-03-03T11:29:42;45.80;36.13;67.76;;
64996;Laerm;51545;51.568;6.998;2023-03-03T11:37:20;42.63;36.49;60.51;;
64996;Laerm;51545;51.568;6.998;2023-03-03T11:39:49;40.29;37.21;45.79;;
64996;Laerm;51545;51.568;6.998;2023-03-03T11:45:12;42.32;37.86;57.16;;
64996;Laerm;51545;51.568;6.998;2023-03-03T11:48:03;41.54;36.45;55.11;;
64996;Laerm;51545;51.568;6.998;2023-03-03T11:50:38;40.67;35.84;58.01;;
64996;Laerm;51545;51.568;6.998;2023-03-03T11:55:59;44.18;36.36;61.78;;
64996;Laerm;51545;51.568;6.998;2023-03-03T11:58:44;45.12;36.15;62.91;;
64996;Laerm;51545;51.568;6.998;2023-03-03T12:01:29;44.43;35.88;63.08;;
64996;Laerm;51545;51.568;6.998;2023-03-03T12:04:02;44.37;37.10;62.11;;
64996;Laerm;51545;51.568;6.998;2023-03-03T12:15:01;42.92;35.71;57.45;;
64996;Laerm;51545;51.568;6.998;2023-03-03T12:17:57;42.12;34.87;55.44;;
64996;Laerm;51545;51.568;6.998;2023-03-03T12:23:37;39.56;34.98;51.62;;
64996;Laerm;51545;51.568;6.998;2023-03-03T12:26:15;38.97;34.04;56.07;;
64996;Laerm;51545;51.568;6.998;2023-03-03T12:28:57;42.10;34.87;63.11;;
64996;Laerm;51545;51.568;6.998;2023-03-03T12:31:32;45.11;34.37;63.81;;
64996;Laerm;51545;51.568;6.998;2023-03-03T12:34:21;51.29;33.92;70.89;;
64996;Laerm;51545;51.568;6.998;2023-03-03T12:37:01;53.36;34.27;72.27;;
64996;Laerm;51545;51.568;6.998;2023-03-03T12:45:14;40.75;33.86;63.04;;
64996;Laerm;51545;51.568;6.998;2023-03-03T12:47:53;47.83;36.49;62.40;;
64996;Laerm;51545;51.568;6.998;2023-03-03T12:55:56;40.97;34.31;60.52;;
64996;Laerm;51545;51.568;6.998;2023-03-03T13:01:47;41.77;34.93;65.59;;
64996;Laerm;51545;51.568;6.998;2023-03-03T13:07:12;39.88;35.10;52.51;;
64996;Laerm;51545;51.568;6.998;2023-03-03T13:15:11;39.76;34.57;53.29;;
64996;Laerm;51545;51.568;6.998;2023-03-03T13:18:06;38.82;34.54;54.57;;
64996;Laerm;51545;51.568;6.998;2023-03-03T13:20:44;43.09;35.83;59.76;;
64996;Laerm;51545;51.568;6.998;2023-03-03T13:23:39;46.75;35.28;62.51;;
64996;Laerm;51545;51.568;6.998;2023-03-03T13:26:25;45.14;34.79;61.68;;
64996;Laerm;51545;51.568;6.998;2023-03-03T13:29:25;44.22;34.99;63.28;;
64996;Laerm;51545;51.568;6.998;2023-03-03T13:32:00;42.18;35.71;58.40;;
64996;Laerm;51545;51.568;6.998;2023-03-03T13:37:00;45.13;37.08;61.70;;
64996;Laerm;51545;51.568;6.998;2023-03-03T13:39:34;45.52;35.87;61.17;;
64996;Laerm;51545;51.568;6.998;2023-03-03T13:42:11;44.25;35.22;59.92;;
64996;Laerm;51545;51.568;6.998;2023-03-03T13:44:41;42.90;37.27;60.30;;
64996;Laerm;51545;51.568;6.998;2023-03-03T13:52:21;42.78;37.22;53.33;;
64996;Laerm;51545;51.568;6.998;2023-03-03T13:58:08;42.42;34.19;58.04;;
64996;Laerm;51545;51.568;6.998;2023-03-03T14:01:03;46.37;36.45;67.48;;
64996;Laerm;51545;51.568;6.998;2023-03-03T14:03:59;43.20;35.19;58.32;;
64996;Laerm;51545;51.568;6.998;2023-03-03T14:06:28;42.27;35.38;55.06;;
64996;Laerm;51545;51.568;6.998;2023-03-03T14:09:35;41.62;36.53;53.68;;
64996;Laerm;51545;51.568;6.998;2023-03-03T14:12:13;42.90;35.12;59.64;;
64996;Laerm;51545;51.568;6.998;2023-03-03T14:18:04;39.09;34.93;47.28;;
64996;Laerm;51545;51.568;6.998;2023-03-03T14:20:39;41.44;35.22;67.95;;
64996;Laerm;51545;51.568;6.998;2023-03-03T14:23:10;41.81;36.02;56.48;;
64996;Laerm;51545;51.568;6.998;2023-03-03T14:25:56;42.57;36.44;56.56;;
64996;Laerm;51545;51.568;6.998;2023-03-03T14:28:25;44.44;36.10;67.22;;
64996;Laerm;51545;51.568;6.998;2023-03-03T14:30:55;50.64;36.02;77.79;;
64996;Laerm;51545;51.568;6.998;2023-03-03T14:33:26;47.97;34.70;75.46;;
64996;Laerm;51545;51.568;6.998;2023-03-03T14:38:35;47.07;36.62;66.24;;
64996;Laerm;51545;51.568;6.998;2023-03-03T14:48:57;44.32;35.40;62.30;;
64996;Laerm;51545;51.568;6.998;2023-03-03T14:53:58;42.86;36.88;65.11;;
64996;Laerm;51545;51.568;6.998;2023-03-03T14:56:29;43.24;37.80;61.51;;
64996;Laerm;51545;51.568;6.998;2023-03-03T14:59:18;43.78;37.15;60.11;;
64996;Laerm;51545;51.568;6.998;2023-03-03T15:01:44;46.51;37.09;62.27;;
64996;Laerm;51545;51.568;6.998;2023-03-03T15:06:47;46.76;40.37;62.66;;
64996;Laerm;51545;51.568;6.998;2023-03-03T15:09:34;46.60;40.38;65.16;;
64996;Laerm;51545;51.568;6.998;2023-03-03T15:12:23;46.57;38.34;64.45;;
64996;Laerm;51545;51.568;6.998;2023-03-03T15:17:34;48.15;40.16;61.73;;
64996;Laerm;51545;51.568;6.998;2023-03-03T15:20:23;48.63;38.75;65.36;;
64996;Laerm;51545;51.568;6.998;2023-03-03T15:25:51;47.65;39.18;65.83;;
64996;Laerm;51545;51.568;6.998;2023-03-03T15:42:36;53.22;39.07;71.17;;
64996;Laerm;51545;51.568;6.998;2023-03-03T15:45:26;55.24;38.58;72.78;;
64996;Laerm;51545;51.568;6.998;2023-03-03T15:51:02;52.20;38.59;68.63;;
64996;Laerm;51545;51.568;6.998;2023-03-03T16:01:34;53.64;39.82;81.82;;
64996;Laerm;51545;51.568;6.998;2023-03-03T16:04:04;49.22;39.78;67.33;;
64996;Laerm;51545;51.568;6.998;2023-03-03T16:09:20;49.32;40.85;61.91;;
64996;Laerm;51545;51.568;6.998;2023-03-03T16:31:36;48.20;41.21;66.32;;
64996;Laerm;51545;51.568;6.998;2023-03-03T16:34:32;50.10;41.45;69.31;;
64996;Laerm;51545;51.568;6.998;2023-03-03T16:39:51;48.37;40.07;66.16;;
64996;Laerm;51545;51.568;6.998;2023-03-03T16:42:29;49.11;40.70;68.54;;
64996;Laerm;51545;51.568;6.998;2023-03-03T16:45:23;52.45;40.67;71.25;;
64996;Laerm;51545;51.568;6.998;2023-03-03T17:04:58;46.07;41.08;64.75;;
64996;Laerm;51545;51.568;6.998;2023-03-03T17:07:42;56.80;40.46;75.25;;
64996;Laerm;51545;51.568;6.998;2023-03-03T17:10:28;45.81;39.08;60.53;;
64996;Laerm;51545;51.568;6.998;2023-03-03T17:13:27;48.49;39.03;74.93;;
64996;Laerm;51545;51.568;6.998;2023-03-03T17:16:21;46.37;39.35;61.32;;
64996;Laerm;51545;51.568;6.998;2023-03-03T17:18:59;44.99;39.75;59.77;;
64996;Laerm;51545;51.568;6.998;2023-03-03T17:21:46;45.90;39.71;59.91;;
64996;Laerm;51545;51.568;6.998;2023-03-03T17:40:54;46.38;37.50;64.70;;
64996;Laerm;51545;51.568;6.998;2023-03-03T17:46:33;46.93;40.96;60.70;;
64996;Laerm;51545;51.568;6.998;2023-03-03T18:00:02;44.16;40.00;55.37;;
64996;Laerm;51545;51.568;6.998;2023-03-03T18:03:01;45.90;39.96;56.40;;
64996;Laerm;51545;51.568;6.998;2023-03-03T18:11:47;44.04;40.27;48.92;;
64996;Laerm;51545;51.568;6.998;2023-03-03T18:14:38;43.67;40.21;49.83;;
64996;Laerm;51545;51.568;6.998;2023-03-03T18:22:52;44.31;40.03;50.65;;
64996;Laerm;51545;51.568;6.998;2023-03-03T18:25:24;44.51;39.67;61.03;;
64996;Laerm;51545;51.568;6.998;2023-03-03T18:30:56;43.06;37.21;49.70;;
64996;Laerm;51545;51.568;6.998;2023-03-03T18:33:43;42.46;37.58;53.42;;
64996;Laerm;51545;51.568;6.998;2023-03-03T18:38:55;42.70;38.42;47.96;;
64996;Laerm;51545;51.568;6.998;2023-03-03T18:41:24;42.44;37.95;51.20;;
64996;Laerm;51545;51.568;6.998;2023-03-03T18:44:01;42.93;38.73;49.01;;
64996;Laerm;51545;51.568;6.998;2023-03-03T18:46:47;44.29;39.38;50.71;;
64996;Laerm;51545;51.568;6.998;2023-03-03T18:49:14;43.67;40.08;49.03;;
64996;Laerm;51545;51.568;6.998;2023-03-03T19:04:47;43.07;39.07;54.69;;